Cap Castillo — A8PI5 — position and weather

sailwx.info

Track history (hours):
 
Tides and Currents Weather Stations Pressure Air Temp Water Temp Dewpoint Dewpoint Depression Visibility Wind Speed Wind Dir Waves Ship Positions

Cap Castillo

Last reported at 2014-Sep-27 20:00 UTC. Time now 2014-Sep-30 11:54 UTC.
Position N 11°06' W 067°18'.

Length 215 m; draft 8.1 m.

Type: Ship. MMSI: 636091558.

Wind from 080 at 12 knots

Barometer 1009.0 mb
Air temperature 31.0 ° C
Visibility: greater than 5.4 NM
Dewpoint 29.7 ° C
Water temperature 30.0 ° C

Date/timePositionNaut miles runAvg speedWind from/ knotsBaromVisibWave heightAir tempDewpointWater temp
2014-Sep-27 20:00N 11°06' W 067°18'   080 / 121009.0 5.4 31.029.730.0
2014-Sep-23 20:00N 17°42' W 073°06'36214.5 120 / 171011.010.8 1.534.031.531.0
2014-Sep-22 19:00N 22°06' W 077°30'23714.2 130 / 161013.0 5.4 1.033.030.530.0
2014-Sep-22 02:16N 25°33' W 079°37'911.9
2014-Sep-22 01:33N 25°40' W 079°40'1312.6
2014-Sep-22 00:33N 25°50' W 079°50'1313.3
2014-Sep-21 23:33N 25°60' W 079°59'8 8.3
2014-Sep-21 22:33N 26°05' W 080°07'1 0.5
2014-Sep-21 21:32N 26°04' W 080°07'0 0.0
2014-Sep-21 20:32N 26°04' W 080°07'0 0.0
2014-Sep-21 19:32N 26°04' W 080°07'0 0.0
2014-Sep-21 18:32N 26°04' W 080°07'0 0.0
2014-Sep-21 17:32N 26°04' W 080°07'0 0.0
2014-Sep-21 16:32N 26°04' W 080°07'0 0.0
2014-Sep-21 15:23N 26°04' W 080°07'0 0.0
2014-Sep-21 14:23N 26°04' W 080°07'0 0.0
2014-Sep-21 13:23N 26°04' W 080°07'0 0.0
2014-Sep-21 12:26N 26°04' W 080°07'0 0.0
2014-Sep-21 11:26N 26°04' W 080°07'0 0.0
2014-Sep-21 10:29N 26°04' W 080°07'0 0.0
2014-Sep-21 09:29N 26°04' W 080°07'1 1.3
2014-Sep-21 08:33N 26°05' W 080°07'5 5.2
2014-Sep-21 07:33N 26°05' W 080°01'4 4.3
2014-Sep-21 06:33N 26°01' W 079°58'1 1.3
2014-Sep-21 05:33N 25°60' W 079°58'1 1.1
2014-Sep-21 04:33N 25°59' W 079°58'1 1.0
2014-Sep-21 03:33N 25°58' W 079°58'1 1.0
2014-Sep-21 02:33N 25°57' W 079°58'1 0.9
2014-Sep-21 01:33N 25°56' W 079°58'0 0.4
2014-Sep-21 00:33N 25°56' W 079°58'4 3.6
2014-Sep-20 23:33N 25°59' W 079°57'1111.5
2014-Sep-20 22:33N 26°09' W 079°50'1211.6
2014-Sep-20 21:33N 26°13' W 079°38'1111.4
2014-Sep-20 20:33N 26°17' W 079°26'366 7.4
2014-Sep-18 19:00N 23°36' W 073°24'39717.2 300 / 101014.010.8 1.031.027.128.0
2014-Sep-17 20:00N 19°06' W 068°12'   070 / 141013.010.8 1.030.027.428.0
Track history (hours):
 
Tides and Currents Weather Stations Pressure Air Temp Water Temp Dewpoint Dewpoint Depression Visibility Wind Speed Wind Dir Waves Ship Positions

Cap Castillo

Last reported at 2014-Sep-27 20:00 UTC. Time now 2014-Sep-30 11:54 UTC.
Position N 11°06' W 067°18'.

Length 215 m; draft 8.1 m.

Type: Ship. MMSI: 636091558.

Wind from 080 at 12 knots

Barometer 1009.0 mb
Air temperature 31.0 ° C
Visibility: greater than 5.4 NM
Dewpoint 29.7 ° C
Water temperature 30.0 ° C

Date/timePositionNaut miles runAvg speedWind from/ knotsBaromVisibWave heightAir tempDewpointWater temp
2014-Sep-27 20:00N 11°06' W 067°18'   080 / 121009.0 5.4 31.029.730.0
2014-Sep-23 20:00N 17°42' W 073°06'36214.5 120 / 171011.010.8 1.534.031.531.0
2014-Sep-22 19:00N 22°06' W 077°30'23714.2 130 / 161013.0 5.4 1.033.030.530.0
2014-Sep-22 02:16N 25°33' W 079°37'911.9
2014-Sep-22 01:33N 25°40' W 079°40'1312.6
2014-Sep-22 00:33N 25°50' W 079°50'1313.3
2014-Sep-21 23:33N 25°60' W 079°59'8 8.3
2014-Sep-21 22:33N 26°05' W 080°07'1 0.5
2014-Sep-21 21:32N 26°04' W 080°07'0 0.0
2014-Sep-21 20:32N 26°04' W 080°07'0 0.0
2014-Sep-21 19:32N 26°04' W 080°07'0 0.0
2014-Sep-21 18:32N 26°04' W 080°07'0 0.0
2014-Sep-21 17:32N 26°04' W 080°07'0 0.0
2014-Sep-21 16:32N 26°04' W 080°07'0 0.0
2014-Sep-21 15:23N 26°04' W 080°07'0 0.0
2014-Sep-21 14:23N 26°04' W 080°07'0 0.0
2014-Sep-21 13:23N 26°04' W 080°07'0 0.0
2014-Sep-21 12:26N 26°04' W 080°07'0 0.0
2014-Sep-21 11:26N 26°04' W 080°07'0 0.0
2014-Sep-21 10:29N 26°04' W 080°07'0 0.0
2014-Sep-21 09:29N 26°04' W 080°07'1 1.3
2014-Sep-21 08:33N 26°05' W 080°07'5 5.2
2014-Sep-21 07:33N 26°05' W 080°01'4 4.3
2014-Sep-21 06:33N 26°01' W 079°58'1 1.3
2014-Sep-21 05:33N 25°60' W 079°58'1 1.1
2014-Sep-21 04:33N 25°59' W 079°58'1 1.0
2014-Sep-21 03:33N 25°58' W 079°58'1 1.0
2014-Sep-21 02:33N 25°57' W 079°58'1 0.9
2014-Sep-21 01:33N 25°56' W 079°58'0 0.4
2014-Sep-21 00:33N 25°56' W 079°58'4 3.6
2014-Sep-20 23:33N 25°59' W 079°57'1111.5
2014-Sep-20 22:33N 26°09' W 079°50'1211.6
2014-Sep-20 21:33N 26°13' W 079°38'1111.4
2014-Sep-20 20:33N 26°17' W 079°26'366 7.4
2014-Sep-18 19:00N 23°36' W 073°24'39717.2 300 / 101014.010.8 1.031.027.128.0
2014-Sep-17 20:00N 19°06' W 068°12'   070 / 141013.010.8 1.030.027.428.0

Dump ship's entire track history